createdAt,value
2023-05-20T00:01:31.189Z,100698.22
2023-05-20T00:03:59.829Z,100695.56
2023-05-20T00:06:28.387Z,100690.03
2023-05-20T00:08:56.803Z,100699.84
2023-05-20T00:11:25.278Z,100682.69
2023-05-20T00:13:53.689Z,100695.97
2023-05-20T00:16:23.468Z,100690.59
2023-05-20T00:18:51.914Z,100694.38
2023-05-20T00:21:20.482Z,100680.66
2023-05-20T00:23:48.839Z,100671.84
2023-05-20T00:26:17.298Z,100681.38
2023-05-20T00:28:49.683Z,100688.75
2023-05-20T00:31:18.162Z,100689.56
2023-05-20T00:33:48.196Z,100684.72
2023-05-20T00:36:16.757Z,100687.50
2023-05-20T00:38:45.233Z,100679.97
2023-05-20T00:41:13.790Z,100678.06
2023-05-20T00:43:42.601Z,100675.63
2023-05-20T00:46:12.179Z,100678.91
2023-05-20T00:48:44.499Z,100682.13
2023-05-20T00:51:15.779Z,100669.44
2023-05-20T00:53:45.146Z,100675.50
2023-05-20T00:56:14.191Z,100676.75
2023-05-20T00:58:42.984Z,100672.81
2023-05-20T01:01:11.448Z,100672.19
2023-05-20T01:03:40.112Z,100675.06
2023-05-20T01:06:08.797Z,100668.09
2023-05-20T01:08:38.692Z,100668.03
2023-05-20T01:11:13.505Z,100663.53
2023-05-20T01:13:49.027Z,100666.53
2023-05-20T01:16:19.538Z,100673.69
2023-05-20T01:18:49.692Z,100664.91
2023-05-20T01:21:19.994Z,100650.78
2023-05-20T01:23:51.232Z,100666.53
2023-05-20T01:26:21.782Z,100668.34
2023-05-20T01:28:51.254Z,100657.38
2023-05-20T01:31:26.060Z,100659.78
2023-05-20T01:33:58.608Z,100659.41
2023-05-20T01:36:28.763Z,100661.44
2023-05-20T01:38:59.905Z,100660.59
2023-05-20T01:41:30.438Z,100662.75
2023-05-20T01:43:59.256Z,100656.78
2023-05-20T01:46:27.813Z,100653.31
2023-05-20T01:48:56.333Z,100642.41
2023-05-20T01:51:25.017Z,100648.41
2023-05-20T01:53:53.519Z,100644.94
2023-05-20T01:56:23.303Z,100635.91
2023-05-20T01:58:51.746Z,100637.16
2023-05-20T02:01:20.264Z,100636.88
2023-05-20T02:03:48.824Z,100638.47
2023-05-20T02:06:17.336Z,100632.41
2023-05-20T02:08:45.806Z,100636.25
2023-05-20T02:11:14.294Z,100629.97
2023-05-20T02:13:44.166Z,100629.09
2023-05-20T02:16:12.662Z,100628.72
2023-05-20T02:18:42.574Z,100626.22
2023-05-20T02:21:11.390Z,100629.50
2023-05-20T02:23:39.971Z,100624.72
2023-05-20T02:26:08.433Z,100626.44
2023-05-20T02:28:40.521Z,100626.81
2023-05-20T02:31:10.460Z,100624.59
2023-05-20T02:33:38.936Z,100626.38
2023-05-20T02:36:08.991Z,100634.81
2023-05-20T02:38:37.371Z,100624.28
2023-05-20T02:41:05.836Z,100628.25
2023-05-20T02:43:36.505Z,100629.72
2023-05-20T02:46:05.194Z,100631.16
2023-05-20T02:48:36.214Z,100632.81
2023-05-20T02:51:04.808Z,100629.72
2023-05-20T02:53:33.229Z,100632.84
2023-05-20T02:56:02.540Z,100623.47
2023-05-20T02:58:31.000Z,100629.44
2023-05-20T03:01:00.604Z,100626.94
2023-05-20T03:03:29.077Z,100623.63
2023-05-20T03:05:58.956Z,100632.81
2023-05-20T03:08:27.375Z,100624.28
2023-05-20T03:10:55.736Z,100620.97
2023-05-20T03:13:24.192Z,100611.16
2023-05-20T03:15:52.723Z,100609.97
2023-05-20T03:18:21.182Z,100606.09
2023-05-20T03:20:49.562Z,100612.00
2023-05-20T03:23:19.526Z,100603.78
2023-05-20T03:25:48.139Z,100600.94
2023-05-20T03:28:16.565Z,100595.50
2023-05-20T03:30:45.453Z,100596.28
2023-05-20T03:33:14.623Z,100589.53
2023-05-20T03:35:43.115Z,100584.25
2023-05-20T03:38:11.570Z,100583.25
2023-05-20T03:40:42.669Z,100588.72
2023-05-20T03:43:11.141Z,100591.00
2023-05-20T03:45:39.492Z,100588.34
2023-05-20T03:48:09.403Z,100592.94
2023-05-20T03:50:37.876Z,100594.84
2023-05-20T03:53:06.575Z,100598.69
2023-05-20T03:55:40.842Z,100596.16
2023-05-20T03:58:11.149Z,100603.41
2023-05-20T04:00:39.789Z,100604.16
2023-05-20T04:03:08.942Z,100606.31
2023-05-20T04:05:37.732Z,100598.97
2023-05-20T04:08:14.339Z,100604.31
2023-05-20T04:10:43.614Z,100595.63
2023-05-20T04:13:15.137Z,100597.38
2023-05-20T04:15:44.334Z,100589.84
2023-05-20T04:18:13.912Z,100598.38
2023-05-20T04:20:42.988Z,100602.72
2023-05-20T04:23:13.530Z,100591.91
2023-05-20T04:25:42.345Z,100595.34
2023-05-20T04:28:14.129Z,100586.34
2023-05-20T04:30:45.167Z,100591.66
2023-05-20T04:33:15.002Z,100607.97
2023-05-20T04:35:44.304Z,100601.69
2023-05-20T04:38:12.852Z,100604.94
2023-05-20T04:40:41.355Z,100603.94
2023-05-20T04:43:09.792Z,100606.44
2023-05-20T04:45:38.568Z,100596.84
2023-05-20T04:48:09.385Z,100599.47
2023-05-20T04:50:39.227Z,100598.69
2023-05-20T04:53:08.946Z,100597.91
2023-05-20T04:55:39.109Z,100603.69
2023-05-20T04:58:08.283Z,100596.16
2023-05-20T05:00:36.881Z,100590.63
2023-05-20T05:03:05.383Z,100589.47
2023-05-20T05:05:36.997Z,100587.91
2023-05-20T05:08:06.169Z,100591.34
2023-05-20T05:10:37.316Z,100590.41
2023-05-20T05:13:06.332Z,100593.44
2023-05-20T05:15:35.156Z,100595.75
2023-05-20T05:18:05.027Z,100581.50
2023-05-20T05:20:36.483Z,100580.47
2023-05-20T05:23:05.050Z,100582.38
2023-05-20T05:25:34.756Z,100580.81
2023-05-20T05:28:03.361Z,100584.53
2023-05-20T05:30:32.149Z,100587.03
2023-05-20T05:33:02.025Z,100589.88
2023-05-20T05:35:30.502Z,100583.34
2023-05-20T05:38:00.310Z,100570.22
2023-05-20T05:40:29.125Z,100575.53
2023-05-20T05:42:57.595Z,100575.94
2023-05-20T05:45:26.833Z,100570.88
2023-05-20T05:47:55.829Z,100576.19
2023-05-20T05:50:24.364Z,100578.22
2023-05-20T05:52:52.749Z,100577.81
2023-05-20T05:55:24.437Z,100578.66
2023-05-20T05:57:53.155Z,100568.03
2023-05-20T06:00:21.812Z,100570.06
2023-05-20T06:02:50.905Z,100587.44
2023-05-20T06:05:32.606Z,100574.72
2023-05-20T06:08:01.284Z,100569.41
2023-05-20T06:10:31.135Z,100569.22
2023-05-20T06:12:59.633Z,100577.56
2023-05-20T06:15:28.936Z,100567.16
2023-05-20T06:17:57.970Z,100574.28
2023-05-20T06:20:28.068Z,100565.28
2023-05-20T06:22:56.583Z,100571.44
2023-05-20T06:25:30.956Z,100573.47
2023-05-20T06:27:59.476Z,100563.44
2023-05-20T06:30:28.327Z,100570.19
2023-05-20T06:32:56.802Z,100574.69
2023-05-20T06:35:25.274Z,100575.91
2023-05-20T06:37:54.044Z,100582.47
2023-05-20T06:40:23.492Z,100576.94
2023-05-20T06:42:53.176Z,100572.66
2023-05-20T06:45:41.606Z,100555.72
2023-05-20T06:48:36.144Z,100560.81
2023-05-20T06:51:05.218Z,100567.41
2023-05-20T06:53:33.767Z,100567.41
2023-05-20T06:56:02.298Z,100574.56
2023-05-20T06:58:32.368Z,100565.97
2023-05-20T07:01:00.822Z,100566.16
2023-05-20T07:03:29.381Z,100565.16
2023-05-20T07:05:58.256Z,100556.97
2023-05-20T07:08:26.877Z,100567.81
2023-05-20T07:10:57.316Z,100562.09
2023-05-20T07:13:26.482Z,100560.03
2023-05-20T07:15:56.317Z,100563.72
2023-05-20T07:18:25.097Z,100560.03
2023-05-20T07:20:56.910Z,100548.56
2023-05-20T07:23:45.854Z,100549.19
2023-05-20T07:26:14.221Z,100552.03
2023-05-20T07:28:42.718Z,100553.88
2023-05-20T07:31:12.540Z,100549.31
2023-05-20T07:33:44.815Z,100541.50
2023-05-20T07:36:14.120Z,100546.75
2023-05-20T07:38:53.070Z,100538.13
2023-05-20T07:41:30.674Z,100524.19
2023-05-20T07:43:59.665Z,100530.91
2023-05-20T07:46:29.680Z,100530.94
2023-05-20T07:48:58.305Z,100521.13
2023-05-20T07:51:26.829Z,100523.97
2023-05-20T07:53:55.817Z,100514.16
2023-05-20T07:56:24.359Z,100511.06
2023-05-20T07:58:58.333Z,100501.34
2023-05-20T08:01:31.191Z,100508.03
2023-05-20T08:04:01.137Z,100508.84
2023-05-20T08:06:30.206Z,100514.94
2023-05-20T08:08:59.744Z,100518.06
2023-05-20T08:11:33.093Z,100512.84
2023-05-20T08:14:02.184Z,100519.47
2023-05-20T08:16:37.491Z,100512.88
2023-05-20T08:19:05.891Z,100518.31
2023-05-20T08:21:35.333Z,100512.81
2023-05-20T08:24:03.893Z,100515.19
2023-05-20T08:26:33.106Z,100505.56
2023-05-20T08:29:01.555Z,100508.41
2023-05-20T08:31:30.369Z,100513.13
2023-05-20T08:34:00.648Z,100504.38
2023-05-20T08:36:29.507Z,100493.59
2023-05-20T08:38:57.893Z,100498.78
2023-05-20T08:41:26.726Z,100494.38
2023-05-20T08:43:55.612Z,100486.56
2023-05-20T08:46:25.049Z,100485.56
2023-05-20T08:48:54.024Z,100483.00
2023-05-20T08:51:25.380Z,100491.81
2023-05-20T08:53:54.000Z,100494.34
2023-05-20T08:56:23.664Z,100502.97
2023-05-20T08:58:52.044Z,100500.47
2023-05-20T09:01:20.655Z,100501.81
2023-05-20T09:03:49.006Z,100493.84
2023-05-20T09:06:20.322Z,100486.78
2023-05-20T09:08:52.724Z,100505.72
2023-05-20T09:11:23.096Z,100498.91
2023-05-20T09:13:52.018Z,100481.31
2023-05-20T09:16:20.444Z,100499.59
2023-05-20T09:18:49.058Z,100485.78
2023-05-20T09:21:17.413Z,100503.44
2023-05-20T09:23:49.664Z,100498.59
2023-05-20T09:26:22.193Z,100492.72
2023-05-20T09:28:51.197Z,100492.06
2023-05-20T09:31:19.531Z,100487.94
2023-05-20T09:33:47.955Z,100493.56
2023-05-20T09:36:17.361Z,100482.50
2023-05-20T09:38:47.599Z,100485.88
2023-05-20T09:41:16.870Z,100487.25
2023-05-20T09:43:46.970Z,100490.53
2023-05-20T09:46:16.591Z,100487.06
2023-05-20T09:48:45.970Z,100481.59
2023-05-20T09:51:15.092Z,100465.50
2023-05-20T09:53:44.136Z,100477.78
2023-05-20T09:56:12.620Z,100472.56
2023-05-20T09:58:44.081Z,100477.38
2023-05-20T10:01:13.884Z,100467.13
2023-05-20T10:03:44.110Z,100472.00
2023-05-20T10:06:37.611Z,100462.34
2023-05-20T10:09:27.649Z,100470.66
2023-05-20T10:12:08.278Z,100473.31
2023-05-20T10:14:52.340Z,100478.38
2023-05-20T10:17:30.859Z,100471.09
2023-05-20T10:20:00.254Z,100470.69
2023-05-20T10:22:31.540Z,100461.78
2023-05-20T10:25:01.388Z,100464.09
2023-05-20T10:27:29.769Z,100468.75
2023-05-20T10:29:58.927Z,100464.91
2023-05-20T10:32:31.402Z,100465.97
2023-05-20T10:35:05.277Z,100459.34
2023-05-20T10:37:35.567Z,100456.19
2023-05-20T10:40:12.611Z,100451.34
2023-05-20T10:42:42.100Z,100450.41
2023-05-20T10:45:11.457Z,100441.53
2023-05-20T10:47:57.032Z,100447.75
2023-05-20T10:50:30.136Z,100439.28
2023-05-20T10:53:06.940Z,100445.25
2023-05-20T10:55:39.685Z,100440.97
2023-05-20T10:58:08.674Z,100443.63
2023-05-20T11:00:38.116Z,100436.28
2023-05-20T11:03:08.775Z,100434.19
2023-05-20T11:05:37.877Z,100439.13
2023-05-20T11:08:16.887Z,100430.75
2023-05-20T11:10:52.970Z,100435.47
2023-05-20T11:13:21.652Z,100421.25
2023-05-20T11:15:50.949Z,100398.59
2023-05-20T11:18:21.027Z,100427.50
2023-05-20T11:20:49.601Z,100430.28
2023-05-20T11:23:18.240Z,100426.03
2023-05-20T11:25:46.584Z,100425.38
2023-05-20T11:28:15.635Z,100426.94
2023-05-20T11:30:44.624Z,100417.59
2023-05-20T11:33:15.041Z,100427.00
2023-05-20T11:35:49.818Z,100415.16
2023-05-20T11:38:19.647Z,100427.97
2023-05-20T11:40:54.010Z,100408.47
2023-05-20T11:43:24.330Z,100424.72
2023-05-20T11:45:56.416Z,100417.16
2023-05-20T11:48:25.688Z,100404.31
2023-05-20T11:50:58.471Z,100401.81
2023-05-20T11:53:28.577Z,100393.53
2023-05-20T11:55:58.934Z,100391.09
2023-05-20T11:58:30.257Z,100401.16
2023-05-20T12:01:09.129Z,100402.16
2023-05-20T12:03:42.329Z,100396.63
2023-05-20T12:06:14.618Z,100405.31
2023-05-20T12:08:43.021Z,100402.28
2023-05-20T12:11:11.463Z,100393.13
2023-05-20T12:13:40.783Z,100380.38
2023-05-20T12:16:09.264Z,100391.50
2023-05-20T12:18:37.668Z,100389.16
2023-05-20T12:21:06.089Z,100380.63
2023-05-20T12:23:35.828Z,100384.91
2023-05-20T12:26:04.292Z,100369.91
2023-05-20T12:28:33.298Z,100377.44
2023-05-20T12:31:02.106Z,100384.50
2023-05-20T12:33:30.594Z,100380.19
2023-05-20T12:35:58.983Z,100375.56
2023-05-20T12:38:27.359Z,100361.66
2023-05-20T12:40:57.148Z,100370.44
2023-05-20T12:43:25.543Z,100372.13
2023-05-20T12:45:54.047Z,100372.25
2023-05-20T12:48:22.411Z,100378.44
2023-05-20T12:50:50.854Z,100376.00
2023-05-20T12:53:19.244Z,100370.47
2023-05-20T12:55:47.921Z,100367.72
2023-05-20T12:58:17.808Z,100363.81
2023-05-20T13:00:46.235Z,100362.09
2023-05-20T13:03:14.837Z,100349.16
2023-05-20T13:05:43.441Z,100352.06
2023-05-20T13:08:12.715Z,100351.91
2023-05-20T13:10:41.370Z,100343.81
2023-05-20T13:13:09.847Z,100347.84
2023-05-20T13:15:39.655Z,100348.88
2023-05-20T13:18:08.461Z,100350.31
2023-05-20T13:20:39.000Z,100351.97
2023-05-20T13:23:08.181Z,100347.66
2023-05-20T13:25:36.832Z,100351.34
2023-05-20T13:28:06.578Z,100350.34
2023-05-20T13:30:35.192Z,100347.25
2023-05-20T13:33:05.657Z,100349.50
2023-05-20T13:35:34.852Z,100338.84
2023-05-20T13:38:03.253Z,100347.44
2023-05-20T13:40:31.707Z,100340.97
2023-05-20T13:43:00.168Z,100333.72
2023-05-20T13:45:29.722Z,100333.22
2023-05-20T13:47:58.171Z,100320.81
2023-05-20T13:50:28.372Z,100329.25
2023-05-20T13:52:56.818Z,100329.72
2023-05-20T13:55:25.331Z,100328.31
2023-05-20T13:57:54.343Z,100321.59
2023-05-20T14:00:22.826Z,100314.63
2023-05-20T14:02:51.275Z,100307.00
2023-05-20T14:05:19.961Z,100316.25
2023-05-20T14:07:49.782Z,100304.41
2023-05-20T14:10:18.291Z,100304.63
2023-05-20T14:12:48.258Z,100305.84
2023-05-20T14:15:16.920Z,100301.81
2023-05-20T14:17:45.404Z,100309.31
2023-05-20T14:20:14.255Z,100300.09
2023-05-20T14:22:42.703Z,100290.31
2023-05-20T14:25:12.638Z,100293.91
2023-05-20T14:27:41.063Z,100296.72
2023-05-20T14:30:11.276Z,100294.59
2023-05-20T14:32:39.803Z,100284.50
2023-05-20T14:35:10.203Z,100293.16
2023-05-20T14:37:38.689Z,100296.84
2023-05-20T14:40:08.853Z,100289.34
2023-05-20T14:42:38.872Z,100285.50
2023-05-20T14:45:09.066Z,100289.34
2023-05-20T14:47:40.087Z,100272.31
2023-05-20T14:50:09.492Z,100282.66
2023-05-20T14:52:37.965Z,100277.00
2023-05-20T14:55:08.208Z,100274.91
2023-05-20T14:57:38.149Z,100273.91
2023-05-20T15:00:08.131Z,100252.91
2023-05-20T15:02:36.737Z,100270.81
2023-05-20T15:05:05.772Z,100277.06
2023-05-20T15:07:34.259Z,100269.28
2023-05-20T15:10:02.757Z,100278.84
2023-05-20T15:12:31.208Z,100276.28
2023-05-20T15:15:00.998Z,100268.31
2023-05-20T15:17:29.615Z,100265.41
2023-05-20T15:19:58.010Z,100270.25
2023-05-20T15:22:26.584Z,100267.13
2023-05-20T15:24:55.061Z,100270.34
2023-05-20T15:27:23.584Z,100263.56
2023-05-20T15:29:52.004Z,100273.75
2023-05-20T15:32:21.949Z,100257.06
2023-05-20T15:34:50.394Z,100255.25
2023-05-20T15:37:18.897Z,100265.19
2023-05-20T15:39:47.266Z,100261.66
2023-05-20T15:42:18.615Z,100253.53
2023-05-20T15:44:47.364Z,100254.91
2023-05-20T15:47:15.901Z,100257.97
2023-05-20T15:49:45.737Z,100254.44
2023-05-20T15:52:14.815Z,100253.63
2023-05-20T15:54:43.304Z,100248.44
2023-05-20T15:57:11.832Z,100234.66
2023-05-20T15:59:40.260Z,100237.50
2023-05-20T16:02:08.644Z,100244.00
2023-05-20T16:04:37.128Z,100247.28
2023-05-20T16:07:06.964Z,100250.25
2023-05-20T16:09:35.713Z,100249.25
2023-05-20T16:12:04.648Z,100252.00
2023-05-20T16:14:33.405Z,100228.84
2023-05-20T16:17:01.961Z,100257.69
2023-05-20T16:19:30.423Z,100256.88
2023-05-20T16:21:58.892Z,100268.09
2023-05-20T16:24:28.640Z,100265.47
2023-05-20T16:26:57.056Z,100265.00
2023-05-20T16:29:25.455Z,100261.44
2023-05-20T16:31:53.986Z,100256.50
2023-05-20T16:34:22.589Z,100256.09
2023-05-20T16:36:51.012Z,100259.59
2023-05-20T16:39:19.387Z,100248.69
2023-05-20T16:41:49.155Z,100247.88
2023-05-20T16:44:17.813Z,100241.28
2023-05-20T16:46:46.308Z,100253.59
2023-05-20T16:49:14.723Z,100257.34
2023-05-20T16:51:43.222Z,100257.66
2023-05-20T16:54:11.674Z,100250.28
2023-05-20T16:56:40.028Z,100255.16
2023-05-20T16:59:09.818Z,100254.69
2023-05-20T17:01:39.124Z,100261.25
2023-05-20T17:04:10.655Z,100261.19
2023-05-20T17:06:40.018Z,100264.84
2023-05-20T17:09:08.865Z,100264.28
2023-05-20T17:11:37.244Z,100270.34
2023-05-20T17:14:05.767Z,100265.81
2023-05-20T17:16:35.785Z,100273.84
2023-05-20T17:19:04.411Z,100266.44
2023-05-20T17:21:34.591Z,100276.81
2023-05-20T17:24:03.175Z,100272.34
2023-05-20T17:26:31.568Z,100282.56
2023-05-20T17:29:00.104Z,100279.41
2023-05-20T17:31:28.470Z,100276.72
2023-05-20T17:33:58.259Z,100279.88
2023-05-20T17:36:26.947Z,100280.88
2023-05-20T17:38:55.519Z,100278.41
2023-05-20T17:41:23.980Z,100279.19
2023-05-20T17:43:52.431Z,100280.34
2023-05-20T17:46:20.924Z,100274.88
2023-05-20T17:48:49.418Z,100279.16
2023-05-20T17:51:19.227Z,100286.59
2023-05-20T17:53:47.728Z,100291.34
2023-05-20T17:56:16.506Z,100288.81
2023-05-20T17:58:45.566Z,100290.03
2023-05-20T18:01:15.064Z,100293.94
2023-05-20T18:03:43.654Z,100298.25
2023-05-20T18:06:12.358Z,100309.88
2023-05-20T18:08:42.490Z,100300.47
2023-05-20T18:11:11.104Z,100308.75
2023-05-20T18:13:39.558Z,100299.13
2023-05-20T18:16:08.648Z,100303.78
2023-05-20T18:18:37.089Z,100294.50
2023-05-20T18:21:07.845Z,100301.91
2023-05-20T18:23:36.335Z,100284.50
2023-05-20T18:26:07.070Z,100293.69
2023-05-20T18:28:35.593Z,100290.78
2023-05-20T18:31:04.080Z,100285.19
2023-05-20T18:33:32.622Z,100288.13
2023-05-20T18:36:01.014Z,100283.72
2023-05-20T18:38:29.464Z,100292.31
2023-05-20T18:40:57.928Z,100304.88
2023-05-20T18:43:27.751Z,100290.13
2023-05-20T18:45:56.360Z,100292.78
2023-05-20T18:48:26.898Z,100301.63
2023-05-20T18:50:56.164Z,100297.56
2023-05-20T18:53:24.628Z,100302.31
2023-05-20T18:55:53.107Z,100297.44
2023-05-20T18:58:21.511Z,100305.69
2023-05-20T19:00:51.606Z,100300.09
2023-05-20T19:03:20.036Z,100294.88
2023-05-20T19:05:48.508Z,100304.16
2023-05-20T19:08:17.310Z,100301.56
2023-05-20T19:10:45.794Z,100302.03
2023-05-20T19:13:14.210Z,100299.16
2023-05-20T19:15:42.612Z,100308.41
2023-05-20T19:18:13.528Z,100295.06
2023-05-20T19:20:41.968Z,100290.44
2023-05-20T19:23:10.450Z,100294.72
2023-05-20T19:25:38.877Z,100295.50
2023-05-20T19:28:07.357Z,100304.56
2023-05-20T19:30:35.915Z,100300.13
2023-05-20T19:33:06.282Z,100306.56
2023-05-20T19:35:36.340Z,100307.31
2023-05-20T19:38:05.985Z,100307.53
2023-05-20T19:40:34.520Z,100305.44
2023-05-20T19:43:02.936Z,100313.91
2023-05-20T19:45:32.247Z,100313.31
2023-05-20T19:48:00.985Z,100309.97
2023-05-20T19:50:29.505Z,100303.28
2023-05-20T19:52:59.313Z,100307.28
2023-05-20T19:55:27.797Z,100296.81
2023-05-20T19:57:56.356Z,100305.88
2023-05-20T20:00:24.999Z,100304.47
2023-05-20T20:02:53.386Z,100313.28
2023-05-20T20:05:23.845Z,100312.09
2023-05-20T20:07:52.619Z,100315.25
2023-05-20T20:10:22.692Z,100308.25
2023-05-20T20:12:51.315Z,100314.03
2023-05-20T20:15:20.631Z,100304.44
2023-05-20T20:17:52.241Z,100295.31
2023-05-20T20:20:21.244Z,100305.44
2023-05-20T20:22:49.609Z,100307.69
2023-05-20T20:25:18.661Z,100299.53
2023-05-20T20:27:48.664Z,100311.78
2023-05-20T20:30:17.522Z,100305.72
2023-05-20T20:32:48.260Z,100307.81
2023-05-20T20:35:17.201Z,100298.41
2023-05-20T20:37:45.591Z,100295.50
2023-05-20T20:40:14.128Z,100287.81
2023-05-20T20:42:45.249Z,100297.50
2023-05-20T20:45:15.676Z,100291.72
2023-05-20T20:47:44.939Z,100288.81
2023-05-20T20:50:13.464Z,100277.97
2023-05-20T20:52:42.743Z,100287.75
2023-05-20T20:55:11.855Z,100285.53
2023-05-20T20:57:42.081Z,100258.00
2023-05-20T21:00:16.038Z,100285.94
2023-05-20T21:02:46.104Z,100283.28
2023-05-20T21:05:16.895Z,100278.47
2023-05-20T21:07:49.784Z,100265.97
2023-05-20T21:10:18.891Z,100271.31
2023-05-20T21:12:47.244Z,100259.91
2023-05-20T21:15:15.596Z,100273.69
2023-05-20T21:17:45.464Z,100260.41
2023-05-20T21:20:15.223Z,100247.50
2023-05-20T21:22:43.645Z,100265.53
2023-05-20T21:25:13.138Z,100264.66
2023-05-20T21:27:42.157Z,100252.38
2023-05-20T21:30:12.264Z,100264.59
2023-05-20T21:32:41.097Z,100255.66
2023-05-20T21:35:11.558Z,100254.16
2023-05-20T21:37:40.030Z,100250.25
2023-05-20T21:40:10.293Z,100255.19
2023-05-20T21:42:38.661Z,100257.19
2023-05-20T21:45:09.181Z,100253.69
2023-05-20T21:47:37.768Z,100254.34
2023-05-20T21:50:08.151Z,100240.69
2023-05-20T21:52:39.737Z,100242.63
2023-05-20T21:55:10.291Z,100244.75
2023-05-20T21:57:38.701Z,100241.28
2023-05-20T22:00:14.451Z,100238.63
2023-05-20T22:02:42.984Z,100240.69
2023-05-20T22:05:12.893Z,100241.28
2023-05-20T22:07:44.412Z,100227.16
2023-05-20T22:10:13.647Z,100220.56
2023-05-20T22:12:43.346Z,100231.53
2023-05-20T22:15:12.747Z,100216.41
2023-05-20T22:17:41.794Z,100223.75
2023-05-20T22:20:12.531Z,100226.88
2023-05-20T22:22:42.399Z,100232.97
2023-05-20T22:25:12.662Z,100206.66
2023-05-20T22:27:42.966Z,100216.41
2023-05-20T22:30:13.280Z,100216.94
2023-05-20T22:32:42.053Z,100208.81
2023-05-20T22:35:13.333Z,100212.16
2023-05-20T22:37:43.320Z,100206.88
2023-05-20T22:40:12.310Z,100200.84
2023-05-20T22:42:40.779Z,100207.09
2023-05-20T22:45:10.958Z,100201.63
2023-05-20T22:47:39.414Z,100194.53
2023-05-20T22:50:09.851Z,100196.28
2023-05-20T22:52:38.304Z,100195.53
2023-05-20T22:55:09.858Z,100195.38
2023-05-20T22:57:38.383Z,100181.81
2023-05-20T23:00:10.085Z,100176.75
2023-05-20T23:02:41.551Z,100182.88
2023-05-20T23:05:11.324Z,100179.16
2023-05-20T23:07:39.756Z,100182.59
2023-05-20T23:10:10.485Z,100173.78
2023-05-20T23:12:38.963Z,100160.31
2023-05-20T23:15:09.498Z,100168.88
2023-05-20T23:17:39.586Z,100164.38
2023-05-20T23:20:11.274Z,100159.00
2023-05-20T23:22:40.104Z,100157.38
2023-05-20T23:25:11.273Z,100157.44
2023-05-20T23:27:39.863Z,100154.84
2023-05-20T23:30:10.581Z,100153.59
2023-05-20T23:32:39.291Z,100152.63
2023-05-20T23:35:11.492Z,100153.06
2023-05-20T23:37:42.128Z,100147.53
2023-05-20T23:40:12.937Z,100139.28
2023-05-20T23:42:41.597Z,100159.13
2023-05-20T23:45:12.111Z,100150.00
2023-05-20T23:47:40.609Z,100151.59
2023-05-20T23:50:09.994Z,100147.34
2023-05-20T23:52:38.339Z,100149.06
2023-05-20T23:55:09.249Z,100147.06
2023-05-20T23:57:39.033Z,100144.50
